Pagina principale
METAR-TAF:

METAR-TAF

Aeroporti :

Cranfield, Inghilterra

latitudine: 52-04N, longitudine: 000-37W, altezza: 111 m

Osservazione

Il bollettino è stato emesso 36 minuti fa, alle 12:50 UTC
Vento 10 kt da sud
Temperature 31°C
Umidità 38%
Pressione 1017 hPa
Visibilità 10 km o più
nessuna nube inferiore a 1500 m e nessun cumulonembo

METAR: EGTC 231250Z 18010KT CAVOK 31/15 Q1017

Ora: 14:26 (13:26 UTC)

Previsione

Il bollettino è stato emesso 2 ore e 25 minuti fa, alle 11:01 UTC
Previsione valida dal 23 alle 12 UTC al 23 alle 18 UTC
Vento 7 kt da sud/sud-est
Visibilità 10 km o più
Poco nuvoloso ad un'altezza di 4500 ft
Probabilità 30% :
Temporaneamente
dal 23 alle 15 UTC al 23 alle 18 UTC
Visibilità: 8000 m
rovesci di pioggia

TAF: EGTC 231101Z 2312/2318 16007KT 9999 FEW045 PROB30 TEMPO 2315/2318 8000 SHRA

Osservazioni e previsioni meteorologiche di più di 4000 aeroporti (messaggi METAR e TAF).

Le stazioni disponibili sono rappresentate dai dischi gialli e rossi sulla carta.

Puntare il mouse per vedere il nome della stazione.

Clicca sopra per visualizzare le osservazioni e previsioni meteorologiche.

Per cambiare la mappa : fare clic sui pulsanti verdi con una croce nera per ingrandire, il pulsante verde con un trattino per diminuire, o sulla freccia verde per le mappe adiacenti.


METAR-TAF: